Time;durP1;ratioP1;P1;durP2;ratioP2;P2;SDS_P1;SDS_P2;PMS_P1;PMS_P2;Temp;Humidity;BMP_temperature;BMP_pressure;BME280_temperature;BME280_humidity;BME280_pressure;Samples;Min_cycle;Max_cycle;Signal;HPM_P1;HPM_P2
2022/10/04 00:02:26;;;;;;;7.22;4.75;;;12.60;99.90;;;;;;5045653;28;20044;-74
2022/10/04 00:05:02;;;;;;;5.97;5.18;;;12.60;99.90;;;;;;5047225;28;20040;-74
2022/10/04 00:07:36;;;;;;;6.15;4.43;;;12.60;99.90;;;;;;5051791;28;20045;-74
2022/10/04 00:10:23;;;;;;;7.65;4.80;;;12.60;99.90;;;;;;5053756;28;20045;-74
2022/10/04 00:13:02;;;;;;;7.30;4.82;;;12.70;99.90;;;;;;5058673;28;20489;-74
2022/10/04 00:15:32;;;;;;;5.50;4.28;;;12.60;99.90;;;;;;5046286;28;20049;-74
2022/10/04 00:18:28;;;;;;;7.28;4.65;;;12.60;99.90;;;;;;5054478;28;20795;-74
2022/10/04 00:20:58;;;;;;;10.68;4.60;;;12.60;99.90;;;;;;5049365;28;20048;-73
2022/10/04 00:23:23;;;;;;;7.18;5.20;;;12.60;99.90;;;;;;5055561;28;20932;-74
2022/10/04 00:25:51;;;;;;;12.20;5.47;;;12.60;99.90;;;;;;5054151;28;20052;-74
2022/10/04 00:28:19;;;;;;;9.75;5.82;;;12.60;99.90;;;;;;5053829;28;20048;-74
2022/10/04 00:31:13;;;;;;;6.28;4.75;;;12.60;99.90;;;;;;5051289;28;20429;-74
2022/10/04 00:33:43;;;;;;;6.97;4.38;;;12.70;99.90;;;;;;5045700;28;20065;-74
2022/10/04 00:36:31;;;;;;;9.48;4.97;;;12.60;99.90;;;;;;5050372;28;20874;-74
2022/10/04 00:39:05;;;;;;;9.25;5.88;;;12.60;99.90;;;;;;5050004;28;20064;-74
2022/10/04 00:42:01;;;;;;;6.70;4.57;;;12.50;99.90;;;;;;5091684;27;20045;-74
2022/10/04 00:44:43;;;;;;;6.10;5.47;;;12.60;99.90;;;;;;5085643;28;20161;-75
2022/10/04 00:47:55;;;;;;;4.93;3.92;;;12.60;99.90;;;;;;5051334;28;20057;-74
2022/10/04 00:50:43;;;;;;;8.93;4.90;;;12.50;99.90;;;;;;5057122;28;20063;-76
2022/10/04 00:53:19;;;;;;;8.13;5.53;;;12.50;99.90;;;;;;5051920;28;20049;-75
2022/10/04 00:56:00;;;;;;;8.38;3.92;;;12.40;99.90;;;;;;5055182;28;20044;-75
2022/10/04 00:58:32;;;;;;;8.77;5.18;;;12.50;99.90;;;;;;5051322;28;20049;-75
2022/10/04 01:00:58;;;;;;;8.45;5.43;;;12.40;99.90;;;;;;5056930;28;21358;-75
2022/10/04 01:03:41;;;;;;;7.05;5.53;;;12.40;99.90;;;;;;5051741;28;20049;-75
2022/10/04 01:06:10;;;;;;;9.77;6.10;;;12.40;99.90;;;;;;5056139;28;20849;-75
2022/10/04 01:08:44;;;;;;;12.30;6.82;;;12.40;99.90;;;;;;5058208;28;20055;-75
2022/10/04 01:11:19;;;;;;;11.57;6.53;;;12.40;99.90;;;;;;5052742;28;20051;-75
2022/10/04 01:13:49;;;;;;;8.05;5.40;;;12.40;99.90;;;;;;5049167;28;20076;-76
2022/10/04 01:16:24;;;;;;;9.25;6.10;;;12.30;99.90;;;;;;5043893;28;20047;-76
2022/10/04 01:18:50;;;;;;;7.72;6.07;;;12.40;99.90;;;;;;5059349;28;20043;-76
2022/10/04 01:21:19;;;;;;;9.52;6.18;;;12.30;99.90;;;;;;5076481;28;20049;-75
2022/10/04 01:23:57;;;;;;;9.45;6.43;;;12.30;99.90;;;;;;5053552;28;20044;-76
2022/10/04 01:26:25;;;;;;;9.57;5.78;;;12.30;99.90;;;;;;5045587;28;20045;-76
2022/10/04 01:29:23;;;;;;;11.23;6.15;;;12.30;99.90;;;;;;5057378;28;20134;-76
2022/10/04 01:31:52;;;;;;;9.00;6.43;;;12.20;99.90;;;;;;5046679;28;20131;-76
2022/10/04 01:34:21;;;;;;;8.85;6.05;;;12.20;99.90;;;;;;5047233;28;20082;-75
2022/10/04 01:36:48;;;;;;;11.10;6.80;;;12.20;99.90;;;;;;5049126;28;20045;-76
2022/10/04 01:39:16;;;;;;;13.20;6.88;;;12.30;99.90;;;;;;5054087;28;20108;-75
2022/10/04 01:41:43;;;;;;;11.20;6.07;;;12.30;99.90;;;;;;5057371;28;20040;-75
2022/10/04 01:44:14;;;;;;;12.02;6.82;;;12.30;99.90;;;;;;5050908;28;20048;-75
2022/10/04 01:46:40;;;;;;;9.85;5.43;;;12.30;99.90;;;;;;5054086;28;20071;-76
2022/10/04 01:49:11;;;;;;;10.25;6.85;;;12.30;99.90;;;;;;5055162;28;20048;-75
2022/10/04 01:52:09;;;;;;;9.65;5.40;;;12.30;99.90;;;;;;5041161;28;20933;-75
2022/10/04 01:54:42;;;;;;;10.32;6.78;;;12.30;99.90;;;;;;5050541;28;20083;-75
2022/10/04 01:57:22;;;;;;;13.90;7.15;;;12.30;99.90;;;;;;5054149;28;20051;-75
2022/10/04 01:59:58;;;;;;;9.27;6.40;;;12.20;99.90;;;;;;5042144;28;20077;-75
2022/10/04 02:03:02;;;;;;;11.27;6.93;;;12.30;99.90;;;;;;5045775;28;20229;-75
2022/10/04 02:05:47;;;;;;;9.60;6.35;;;12.20;99.90;;;;;;5032991;28;20139;-75
2022/10/04 02:08:17;;;;;;;15.27;7.57;;;12.20;99.90;;;;;;5045367;28;20053;-75
2022/10/04 02:10:44;;;;;;;13.70;7.43;;;12.20;99.90;;;;;;5046190;28;20494;-75
2022/10/04 02:13:17;;;;;;;8.95;6.75;;;12.20;99.90;;;;;;5054988;28;20165;-75
2022/10/04 02:15:44;;;;;;;8.73;6.40;;;12.20;99.90;;;;;;5047737;28;20044;-76
2022/10/04 02:18:21;;;;;;;11.10;6.88;;;12.10;99.90;;;;;;5053647;28;20136;-76
2022/10/04 02:20:49;;;;;;;11.23;6.82;;;12.20;99.90;;;;;;5049917;28;20044;-75
2022/10/04 02:23:17;;;;;;;12.50;6.90;;;12.10;99.90;;;;;;5044579;28;20056;-75
2022/10/04 02:25:43;;;;;;;7.82;5.22;;;12.10;99.90;;;;;;5044668;28;20390;-76
2022/10/04 02:28:12;;;;;;;9.40;6.13;;;12.10;99.90;;;;;;5055895;28;20047;-74
2022/10/04 02:30:40;;;;;;;8.68;5.55;;;12.00;99.90;;;;;;5053989;28;20056;-74
2022/10/04 02:33:06;;;;;;;10.35;6.38;;;12.00;99.90;;;;;;5051730;28;20052;-74
2022/10/04 02:35:43;;;;;;;9.65;5.32;;;12.00;99.90;;;;;;5053275;28;20044;-74
2022/10/04 02:38:12;;;;;;;7.40;6.10;;;11.90;99.90;;;;;;5053285;28;20044;-74
2022/10/04 02:41:21;;;;;;;8.18;6.28;;;11.90;99.90;;;;;;5052010;28;20044;-75
2022/10/04 02:43:54;;;;;;;13.85;7.45;;;11.80;99.90;;;;;;5051938;28;20072;-75
2022/10/04 02:46:35;;;;;;;10.13;7.65;;;11.80;99.90;;;;;;5046693;28;20073;-75
2022/10/04 02:49:09;;;;;;;8.90;6.68;;;11.80;99.90;;;;;;5046736;28;20139;-75
2022/10/04 02:51:42;;;;;;;11.07;6.68;;;11.80;99.90;;;;;;5049734;28;21237;-75
2022/10/04 02:54:26;;;;;;;12.35;6.75;;;11.80;99.90;;;;;;5051267;28;20052;-74
2022/10/04 02:56:54;;;;;;;8.90;7.18;;;11.80;99.90;;;;;;5049542;28;20095;-75
2022/10/04 02:59:21;;;;;;;9.40;6.35;;;11.70;99.90;;;;;;5053286;28;20087;-75
2022/10/04 03:02:00;;;;;;;10.73;6.53;;;11.70;99.90;;;;;;5053658;28;20101;-75
2022/10/04 03:04:33;;;;;;;9.73;6.28;;;11.70;99.90;;;;;;5053632;28;20056;-75
2022/10/04 03:07:02;;;;;;;8.55;5.53;;;11.70;99.90;;;;;;5052686;28;20122;-75
2022/10/04 03:09:28;;;;;;;8.00;6.85;;;11.70;99.90;;;;;;5054303;28;20059;-76
2022/10/04 03:11:55;;;;;;;8.63;6.32;;;11.60;99.90;;;;;;5052806;28;20697;-75
2022/10/04 03:14:24;;;;;;;9.38;5.38;;;11.60;99.90;;;;;;5084016;28;20059;-75
2022/10/04 03:16:53;;;;;;;9.98;6.97;;;11.60;99.90;;;;;;5051313;28;20105;-76
2022/10/04 03:19:23;;;;;;;11.13;6.63;;;11.60;99.90;;;;;;5044005;28;20756;-76
2022/10/04 03:21:53;;;;;;;7.82;6.50;;;11.60;99.90;;;;;;5048242;28;20076;-75
2022/10/04 03:24:32;;;;;;;8.93;6.65;;;11.60;99.90;;;;;;5044889;28;20054;-76
2022/10/04 03:27:02;;;;;;;11.80;7.18;;;11.60;99.90;;;;;;5043374;28;20637;-76
2022/10/04 03:29:30;;;;;;;12.00;8.68;;;11.70;99.90;;;;;;5045489;28;20048;-76
2022/10/04 03:31:59;;;;;;;12.77;6.90;;;11.70;99.90;;;;;;5044324;28;20130;-76
2022/10/04 03:34:34;;;;;;;10.48;7.45;;;11.70;99.90;;;;;;5056263;28;20095;-76
2022/10/04 03:37:01;;;;;;;10.50;7.68;;;11.70;99.90;;;;;;5055152;28;20112;-75
2022/10/04 03:39:32;;;;;;;8.73;7.32;;;11.70;99.90;;;;;;5045173;28;20665;-75
2022/10/04 03:42:01;;;;;;;10.30;7.10;;;11.70;99.90;;;;;;5045839;28;20044;-75
2022/10/04 03:44:27;;;;;;;9.20;6.22;;;11.70;99.90;;;;;;5055660;28;20776;-76
2022/10/04 03:46:54;;;;;;;7.63;5.30;;;11.70;99.90;;;;;;5052003;28;20058;-76
2022/10/04 03:49:32;;;;;;;6.97;5.63;;;11.60;99.90;;;;;;5053366;28;20113;-76
2022/10/04 03:51:59;;;;;;;10.95;7.55;;;11.60;99.90;;;;;;5051819;28;20783;-76
2022/10/04 03:54:27;;;;;;;9.00;6.07;;;11.60;99.90;;;;;;5051251;28;20048;-76
2022/10/04 03:56:54;;;;;;;9.07;6.72;;;11.60;99.90;;;;;;5049717;28;20060;-75
2022/10/04 03:59:21;;;;;;;11.23;7.93;;;11.50;99.90;;;;;;5049775;28;20044;-75
2022/10/04 04:01:54;;;;;;;10.75;6.82;;;11.50;99.90;;;;;;5049807;28;20106;-76
2022/10/04 04:04:28;;;;;;;11.43;7.43;;;11.60;99.90;;;;;;5051318;28;20460;-75
2022/10/04 04:07:33;;;;;;;12.32;7.32;;;11.50;99.90;;;;;;5051737;28;20618;-76
2022/10/04 04:10:04;;;;;;;14.18;8.77;;;11.40;99.90;;;;;;5085454;28;20083;-75
2022/10/04 04:13:20;;;;;;;8.30;6.70;;;11.40;99.90;;;;;;5055325;28;20143;-75
2022/10/04 04:15:47;;;;;;;11.65;6.45;;;11.40;99.90;;;;;;5050813;28;20052;-76
2022/10/04 04:18:20;;;;;;;11.55;7.68;;;11.40;99.90;;;;;;5051495;28;20072;-76
2022/10/04 04:20:50;;;;;;;11.10;6.57;;;11.40;99.90;;;;;;5054720;28;20051;-76
2022/10/04 04:23:27;;;;;;;7.43;6.65;;;11.40;99.90;;;;;;5051922;28;20862;-76
2022/10/04 04:26:00;;;;;;;9.77;7.43;;;11.40;99.90;;;;;;5054231;28;20037;-76
2022/10/04 04:28:37;;;;;;;13.65;6.95;;;11.40;99.90;;;;;;5053445;28;20125;-76
2022/10/04 04:31:18;;;;;;;11.13;7.47;;;11.40;99.90;;;;;;5054340;28;20052;-75
2022/10/04 04:34:13;;;;;;;12.15;7.35;;;11.40;99.90;;;;;;5054123;28;20073;-76
2022/10/04 04:36:40;;;;;;;15.00;8.00;;;11.40;99.90;;;;;;5054701;28;20053;-76
2022/10/04 04:39:33;;;;;;;8.27;5.45;;;11.40;99.90;;;;;;5055592;28;20044;-76
2022/10/04 04:42:23;;;;;;;9.70;8.15;;;11.30;99.90;;;;;;5055509;28;20568;-76
2022/10/04 04:45:00;;;;;;;13.13;8.02;;;11.30;99.90;;;;;;5054148;28;20052;-76
2022/10/04 04:47:43;;;;;;;10.60;6.53;;;11.30;99.90;;;;;;5054940;28;20052;-76
2022/10/04 04:50:18;;;;;;;10.65;9.02;;;11.30;99.90;;;;;;5054106;28;20045;-76
2022/10/04 04:52:50;;;;;;;11.48;8.20;;;11.30;99.90;;;;;;5052970;28;20498;-76
2022/10/04 04:55:23;;;;;;;10.20;7.75;;;11.20;99.90;;;;;;5054202;28;20040;-76
2022/10/04 04:57:53;;;;;;;12.73;7.90;;;11.20;99.90;;;;;;5056265;28;20048;-76
2022/10/04 05:00:28;;;;;;;14.93;8.50;;;11.10;99.90;;;;;;5053923;28;20711;-76
2022/10/04 05:02:56;;;;;;;10.60;7.68;;;11.20;99.90;;;;;;5051890;28;20056;-76
2022/10/04 05:05:27;;;;;;;15.45;9.98;;;11.10;99.90;;;;;;5058420;28;20044;-76
2022/10/04 05:08:17;;;;;;;12.65;8.35;;;11.10;99.90;;;;;;5055536;28;20063;-76
2022/10/04 05:10:54;;;;;;;19.23;10.00;;;11.10;99.90;;;;;;5057455;28;20472;-76
2022/10/04 05:13:21;;;;;;;15.65;10.05;;;11.10;99.90;;;;;;5054944;28;20052;-76
2022/10/04 05:15:53;;;;;;;11.75;8.85;;;11.10;99.90;;;;;;5056175;28;20044;-76
2022/10/04 05:18:29;;;;;;;13.63;9.23;;;11.10;99.90;;;;;;5057645;28;20052;-76
2022/10/04 05:20:58;;;;;;;15.38;9.90;;;11.10;99.90;;;;;;5053646;28;20124;-76
2022/10/04 05:23:24;;;;;;;12.38;9.02;;;11.10;99.90;;;;;;5057378;28;20044;-77
2022/10/04 05:25:50;;;;;;;16.13;10.60;;;11.10;99.90;;;;;;5085989;28;20044;-77
2022/10/04 05:28:19;;;;;;;10.35;8.85;;;11.10;99.90;;;;;;5055618;28;20044;-77
2022/10/04 05:31:06;;;;;;;12.40;10.95;;;11.00;99.90;;;;;;5051781;28;20036;-76
2022/10/04 05:33:54;;;;;;;14.07;9.98;;;11.10;99.90;;;;;;5052445;28;20149;-76
2022/10/04 05:36:28;;;;;;;15.23;9.73;;;11.00;99.90;;;;;;5048499;28;20053;-77
2022/10/04 05:39:12;;;;;;;12.68;11.10;;;11.00;99.90;;;;;;5050535;28;20095;-77
2022/10/04 05:42:06;;;;;;;18.27;11.48;;;10.90;99.90;;;;;;5050935;28;20053;-77
2022/10/04 05:44:53;;;;;;;18.05;10.95;;;10.90;99.90;;;;;;5054825;28;20109;-77
2022/10/04 05:47:27;;;;;;;14.93;11.77;;;10.90;99.90;;;;;;5051316;28;20065;-77
2022/10/04 05:49:59;;;;;;;17.65;12.55;;;10.80;99.90;;;;;;5051105;28;20044;-77
2022/10/04 05:52:33;;;;;;;21.08;12.43;;;10.80;99.90;;;;;;5050610;28;20068;-77
2022/10/04 05:55:47;;;;;;;14.23;11.48;;;10.80;99.90;;;;;;5051902;28;20090;-76
2022/10/04 05:58:20;;;;;;;;;;;10.80;99.90;;;;;;5016944;28;20061;-76
2022/10/04 06:01:04;;;;;;;13.77;10.13;;;10.70;99.90;;;;;;5052850;28;19972;-76
2022/10/04 06:03:39;;;;;;;12.18;10.60;;;10.80;99.90;;;;;;5054009;28;20044;-76
2022/10/04 06:06:15;;;;;;;17.65;11.75;;;10.80;99.90;;;;;;5054705;28;20537;-77
2022/10/04 06:08:44;;;;;;;13.50;8.55;;;10.70;99.90;;;;;;5053785;28;20049;-76
2022/10/04 06:11:28;;;;;;;14.57;12.07;;;10.70;99.90;;;;;;5054807;28;20524;-76
2022/10/04 06:14:21;;;;;;;14.23;11.32;;;10.70;99.90;;;;;;5053182;28;20089;-76
2022/10/04 06:17:14;;;;;;;14.20;11.60;;;10.70;99.90;;;;;;5053785;28;20051;-76
2022/10/04 06:20:11;;;;;;;13.77;11.52;;;10.70;99.90;;;;;;5049535;28;20157;-77
2022/10/04 06:22:47;;;;;;;16.55;11.65;;;10.70;99.90;;;;;;5051445;28;20051;-76
2022/10/04 06:25:33;;;;;;;17.45;10.90;;;10.70;99.90;;;;;;5051616;28;20129;-75
2022/10/04 06:28:13;;;;;;;18.42;11.85;;;10.70;99.90;;;;;;5051910;28;20055;-76
2022/10/04 06:31:23;;;;;;;18.38;12.52;;;10.70;99.90;;;;;;5053176;28;20062;-77
2022/10/04 06:34:31;;;;;;;19.50;13.38;;;10.80;99.90;;;;;;5050774;28;20040;-76
2022/10/04 06:37:14;;;;;;;15.15;12.18;;;10.80;99.90;;;;;;5043289;28;20219;-77
2022/10/04 06:39:58;;;;;;;19.35;13.75;;;10.90;99.90;;;;;;5055381;28;20795;-76
2022/10/04 06:42:54;;;;;;;21.15;14.30;;;10.90;99.90;;;;;;5049523;28;20220;-76
2022/10/04 06:45:32;;;;;;;19.75;12.45;;;11.00;99.90;;;;;;5080864;28;20092;-77
2022/10/04 06:48:14;;;;;;;17.38;12.63;;;11.10;99.90;;;;;;5054398;28;20118;-76
2022/10/04 06:50:52;;;;;;;15.98;12.73;;;11.20;99.90;;;;;;5057118;28;20095;-76
2022/10/04 06:53:25;;;;;;;16.33;11.98;;;11.30;99.90;;;;;;5052823;28;20221;-76
2022/10/04 06:56:26;;;;;;;18.20;12.10;;;11.30;99.90;;;;;;5055630;28;20059;-76
2022/10/04 06:59:15;;;;;;;20.00;11.65;;;11.50;99.90;;;;;;5013377;28;20099;-76
2022/10/04 07:01:56;;;;;;;13.15;11.15;;;11.60;99.90;;;;;;5051943;28;20052;-76
2022/10/04 07:05:16;;;;;;;19.35;12.80;;;11.70;99.90;;;;;;5052958;28;20123;-76
2022/10/04 07:07:47;;;;;;;20.17;12.05;;;11.90;99.90;;;;;;5016110;28;20747;-76
2022/10/04 07:10:31;;;;;;;16.48;10.27;;;12.10;99.90;;;;;;5054528;28;20060;-77
2022/10/04 07:13:03;;;;;;;16.70;11.35;;;12.10;99.90;;;;;;5055796;28;20078;-77
2022/10/04 07:15:44;;;;;;;12.70;11.35;;;12.10;99.90;;;;;;5054351;28;20044;-77
2022/10/04 07:18:15;;;;;;;15.38;10.38;;;12.20;99.90;;;;;;5053066;28;20486;-77
2022/10/04 07:20:42;;;;;;;13.70;10.02;;;12.20;99.90;;;;;;5055119;28;20055;-77
2022/10/04 07:23:20;;;;;;;16.75;10.88;;;12.30;99.90;;;;;;5057567;28;20125;-75
2022/10/04 07:25:53;;;;;;;15.57;11.13;;;12.40;99.90;;;;;;5051926;28;20112;-78
2022/10/04 07:31:31;;;;;;;13.55;10.57;;;12.70;99.90;;;;;;5031706;28;20853;-76
2022/10/04 07:34:18;;;;;;;12.15;9.98;;;12.90;99.90;;;;;;5054110;28;20087;-76
2022/10/04 07:36:50;;;;;;;15.13;10.65;;;13.00;99.90;;;;;;5059466;28;20147;-77
2022/10/04 07:39:21;;;;;;;16.05;10.73;;;13.20;99.90;;;;;;5053729;28;20091;-76
2022/10/04 07:41:51;;;;;;;11.07;8.60;;;13.40;99.90;;;;;;5054884;28;20048;-74
2022/10/04 07:44:26;;;;;;;9.85;8.85;;;13.40;99.90;;;;;;5047467;28;20063;-76
2022/10/04 07:47:02;;;;;;;18.25;12.07;;;13.50;99.90;;;;;;5057994;28;20164;-76
2022/10/04 07:49:35;;;;;;;13.50;10.00;;;13.50;99.90;;;;;;5054103;28;20852;-76
2022/10/04 07:52:17;;;;;;;17.20;10.40;;;13.60;99.90;;;;;;5051112;28;20403;-76
2022/10/04 07:55:15;;;;;;;13.70;8.88;;;13.80;99.90;;;;;;5050981;28;20132;-76
2022/10/04 07:57:57;;;;;;;12.32;9.35;;;14.10;99.90;;;;;;5048296;28;20052;-75
2022/10/04 08:00:47;;;;;;;13.70;9.77;;;14.50;99.90;;;;;;5047262;28;20040;-77
2022/10/04 08:03:45;;;;;;;10.95;9.15;;;14.50;99.90;;;;;;5057344;28;20052;-75
2022/10/04 08:06:15;;;;;;;11.65;8.38;;;14.60;99.90;;;;;;5055123;28;20148;-76
2022/10/04 08:09:08;;;;;;;15.30;9.45;;;14.60;99.90;;;;;;5059655;28;20048;-76
2022/10/04 08:11:45;;;;;;;11.95;9.23;;;14.50;99.90;;;;;;5060592;28;20143;-76
2022/10/04 08:14:44;;;;;;;12.55;8.65;;;14.60;99.90;;;;;;5059619;28;20099;-76
2022/10/04 08:17:38;;;;;;;10.20;8.13;;;14.60;99.90;;;;;;5053431;28;20088;-74
2022/10/04 08:20:38;;;;;;;11.65;8.88;;;14.50;99.90;;;;;;5058000;28;20394;-77
2022/10/04 08:23:31;;;;;;;12.13;8.73;;;14.40;99.90;;;;;;5059928;28;20067;-76
2022/10/04 08:26:06;;;;;;;9.85;7.97;;;14.20;99.90;;;;;;5054324;28;20052;-76
2022/10/04 08:31:49;;;;;;;15.27;8.75;;;14.20;99.90;;;;;;5048849;28;20548;-74
2022/10/04 08:34:43;;;;;;;10.73;7.47;;;14.70;99.90;;;;;;5055716;28;20052;-76
2022/10/04 08:37:26;;;;;;;11.15;6.88;;;15.60;99.90;;;;;;5050005;28;20056;-73
2022/10/04 08:40:07;;;;;;;13.63;6.90;;;16.60;99.90;;;;;;5054985;28;20307;-76
2022/10/04 08:43:04;;;;;;;8.05;6.85;;;17.90;99.90;;;;;;5055111;28;20048;-76
2022/10/04 08:45:37;;;;;;;10.05;7.63;;;19.10;99.90;;;;;;5056958;28;20056;-77
2022/10/04 08:48:37;;;;;;;10.00;6.88;;;19.90;99.90;;;;;;5057846;28;20060;-76
2022/10/04 08:51:42;;;;;;;7.53;6.70;;;20.40;99.90;;;;;;5050497;28;20056;-76
2022/10/04 08:54:34;;;;;;;8.57;6.38;;;21.50;99.90;;;;;;5051474;28;20836;-77
2022/10/04 08:57:33;;;;;;;10.85;5.90;;;22.00;96.50;;;;;;5052366;28;20056;-76
2022/10/04 09:00:12;;;;;;;8.90;6.75;;;21.80;98.00;;;;;;5058854;28;20098;-75
2022/10/04 09:03:18;;;;;;;8.48;6.38;;;22.10;99.90;;;;;;5058954;28;20117;-78
2022/10/04 09:06:12;;;;;;;6.28;5.40;;;22.40;95.30;;;;;;5053733;28;20079;-78
2022/10/04 09:09:02;;;;;;;10.23;6.32;;;22.50;97.60;;;;;;5048741;28;20532;-79
2022/10/04 09:11:40;;;;;;;8.30;5.68;;;22.70;99.70;;;;;;5048040;28;20642;-77
2022/10/04 09:14:24;;;;;;;7.53;4.95;;;22.90;99.40;;;;;;5056940;28;20060;-78
2022/10/04 09:17:21;;;;;;;10.60;6.40;;;22.80;97.50;;;;;;5052641;28;20128;-78
2022/10/04 09:19:53;;;;;;;9.52;5.65;;;22.80;93.40;;;;;;5046295;28;20055;-78
2022/10/04 09:22:45;;;;;;;11.07;6.30;;;22.90;97.60;;;;;;5047921;28;20052;-76
2022/10/04 09:25:23;;;;;;;11.20;6.10;;;22.50;96.50;;;;;;5040631;28;20061;-77
2022/10/04 09:28:23;;;;;;;7.85;5.10;;;22.80;93.90;;;;;;5054630;28;20071;-78
2022/10/04 09:31:19;;;;;;;9.13;5.82;;;22.20;92.10;;;;;;5045514;28;20055;-75
2022/10/04 09:33:58;;;;;;;12.13;5.38;;;22.30;94.80;;;;;;5057097;28;20698;-76
2022/10/04 09:36:30;;;;;;;5.50;4.85;;;22.50;96.70;;;;;;5057319;28;20048;-77
2022/10/04 09:39:17;;;;;;;5.97;5.13;;;22.60;94.30;;;;;;5058461;28;20090;-77
2022/10/04 09:42:11;;;;;;;6.85;4.65;;;22.50;94.50;;;;;;5056254;28;20823;-79
2022/10/04 09:45:05;;;;;;;9.55;4.63;;;22.80;94.10;;;;;;5057434;28;20071;-77
2022/10/04 09:47:49;;;;;;;8.98;4.70;;;23.00;92.50;;;;;;5056134;28;20140;-76
2022/10/04 09:51:00;;;;;;;7.13;5.70;;;23.80;93.80;;;;;;5055937;28;20080;-77
2022/10/04 09:53:45;;;;;;;5.22;4.75;;;23.30;90.80;;;;;;5085716;28;20079;-76
2022/10/04 09:56:53;;;;;;;8.43;5.53;;;23.00;91.40;;;;;;5047706;28;20053;-75
2022/10/04 09:59:52;;;;;;;7.45;5.10;;;23.40;91.40;;;;;;5052782;28;20049;-76
2022/10/04 10:02:55;;;;;;;6.60;5.13;;;23.80;91.00;;;;;;5058454;28;20048;-77
2022/10/04 10:05:34;;;;;;;11.65;5.38;;;24.00;90.70;;;;;;5050301;28;20054;-77
2022/10/04 10:08:35;;;;;;;9.25;4.93;;;24.40;91.70;;;;;;5058058;28;20131;-77
2022/10/04 10:14:07;;;;;;;5.88;3.88;;;24.90;91.20;;;;;;5050979;28;20559;-77
2022/10/04 10:16:45;;;;;;;;;;;24.80;90.70;;;;;;5056778;28;20087;-77
2022/10/04 10:19:23;;;;;;;9.18;5.07;;;24.20;89.20;;;;;;5056244;28;20332;-77
2022/10/04 10:22:29;;;;;;;6.43;4.82;;;24.50;92.20;;;;;;5057163;28;20059;-76
2022/10/04 10:25:35;;;;;;;6.22;4.13;;;24.60;89.80;;;;;;5055826;28;20095;-76
2022/10/04 10:28:27;;;;;;;9.18;4.60;;;24.00;90.60;;;;;;5019102;28;20681;-77
2022/10/04 10:31:15;;;;;;;8.25;4.53;;;23.00;90.80;;;;;;5051123;28;20155;-76
2022/10/04 10:34:00;;;;;;;8.15;4.78;;;22.40;91.50;;;;;;5053995;28;20050;-79
2022/10/04 10:37:01;;;;;;;4.90;3.95;;;21.40;94.10;;;;;;5054611;28;20040;-76
2022/10/04 10:39:29;;;;;;;4.85;3.80;;;20.10;94.30;;;;;;5054854;28;20040;-76
2022/10/04 10:42:26;;;;;;;8.27;4.60;;;19.40;95.90;;;;;;5047319;28;20383;-76
2022/10/04 10:45:08;;;;;;;10.13;3.80;;;18.90;97.40;;;;;;5041441;28;20143;-76
2022/10/04 10:47:48;;;;;;;9.18;4.70;;;18.70;98.90;;;;;;5047601;28;20079;-74
2022/10/04 10:50:57;;;;;;;5.72;4.07;;;18.60;98.60;;;;;;5057242;28;20049;-75
2022/10/04 10:53:47;;;;;;;4.45;3.58;;;18.40;99.10;;;;;;5052507;28;20059;-75
2022/10/04 10:56:32;;;;;;;5.38;3.50;;;18.40;99.90;;;;;;5053870;28;20051;-76
2022/10/04 10:59:49;;;;;;;9.27;4.47;;;18.40;99.90;;;;;;5055958;28;20040;-75
2022/10/04 11:02:27;;;;;;;8.45;4.20;;;18.20;99.30;;;;;;5048067;28;20091;-75
2022/10/04 11:05:25;;;;;;;5.60;4.28;;;18.20;99.90;;;;;;5053260;28;20052;-75
2022/10/04 11:08:07;;;;;;;14.85;5.07;;;18.20;99.90;;;;;;5053179;28;20074;-76
2022/10/04 11:10:54;;;;;;;9.07;4.55;;;18.10;99.90;;;;;;5051433;28;20049;-75
2022/10/04 11:13:53;;;;;;;7.18;4.25;;;18.00;99.90;;;;;;5042157;28;20453;-75
2022/10/04 11:16:46;;;;;;;7.63;4.10;;;18.00;99.90;;;;;;5042528;28;20055;-75
2022/10/04 11:19:37;;;;;;;6.35;3.55;;;18.00;99.90;;;;;;5050217;28;20443;-75
2022/10/04 11:22:34;;;;;;;5.90;3.50;;;18.00;99.90;;;;;;5057185;28;20060;-75
2022/10/04 11:25:38;;;;;;;4.75;3.28;;;18.10;99.90;;;;;;5028025;28;20056;-74
2022/10/04 11:28:45;;;;;;;6.25;3.47;;;18.10;99.90;;;;;;5055247;28;20052;-75
2022/10/04 11:31:39;;;;;;;7.20;4.78;;;18.10;99.90;;;;;;5042565;28;20044;-75
2022/10/04 11:34:17;;;;;;;6.03;4.20;;;18.10;99.80;;;;;;5053654;28;20056;-75
2022/10/04 11:37:14;;;;;;;7.97;4.80;;;18.00;99.90;;;;;;5037533;28;20061;-75
2022/10/04 11:39:40;;;;;;;8.38;4.80;;;18.10;99.90;;;;;;5058317;28;20340;-75
2022/10/04 11:42:42;;;;;;;10.20;5.18;;;18.00;99.90;;;;;;5063137;28;20075;-75
2022/10/04 11:45:32;;;;;;;9.88;4.80;;;18.00;99.90;;;;;;5062052;28;20048;-75
2022/10/04 11:48:39;;;;;;;4.88;3.47;;;18.00;99.90;;;;;;5065318;28;20581;-75
2022/10/04 11:51:09;;;;;;;7.03;5.07;;;18.00;99.90;;;;;;5021346;28;20053;-76
2022/10/04 11:53:53;;;;;;;6.57;4.82;;;18.00;99.80;;;;;;5062864;28;20063;-75
2022/10/04 11:57:07;;;;;;;5.70;3.92;;;18.10;99.90;;;;;;5060124;28;20076;-75
2022/10/04 11:59:52;;;;;;;6.60;4.65;;;18.10;99.90;;;;;;5044174;28;20060;-75
2022/10/04 12:02:31;;;;;;;9.13;4.38;;;17.90;99.90;;;;;;5057373;28;20063;-75
2022/10/04 12:05:27;;;;;;;9.73;4.32;;;17.90;99.90;;;;;;5057264;28;20052;-75
2022/10/04 12:08:01;;;;;;;6.85;4.00;;;18.00;99.90;;;;;;5055739;28;20047;-75
2022/10/04 12:10:39;;;;;;;5.25;4.72;;;18.10;99.90;;;;;;5056710;28;20044;-76
2022/10/04 12:13:05;;;;;;;10.02;4.95;;;18.20;99.90;;;;;;5058388;28;20044;-74
2022/10/04 12:16:02;;;;;;;6.68;4.07;;;18.20;99.90;;;;;;5056454;28;20066;-76
2022/10/04 12:18:55;;;;;;;10.43;5.30;;;18.20;99.90;;;;;;5051815;28;20098;-75
2022/10/04 12:21:49;;;;;;;5.80;4.80;;;18.30;99.90;;;;;;5059411;28;20052;-75
2022/10/04 12:24:32;;;;;;;9.90;5.07;;;18.30;99.70;;;;;;5059564;28;20048;-75
2022/10/04 12:27:16;;;;;;;6.70;4.35;;;18.30;99.90;;;;;;5058288;28;20106;-76
2022/10/04 12:30:19;;;;;;;6.43;4.18;;;18.40;99.90;;;;;;5058107;28;20117;-75
2022/10/04 12:33:00;;;;;;;10.70;4.68;;;18.40;99.40;;;;;;5059655;28;20180;-75
2022/10/04 12:35:44;;;;;;;9.52;5.03;;;18.40;99.90;;;;;;5057029;28;20055;-76
2022/10/04 12:38:16;;;;;;;7.70;4.70;;;18.50;99.90;;;;;;5056880;28;20906;-75
2022/10/04 12:41:01;;;;;;;8.30;5.30;;;18.40;99.90;;;;;;5058322;28;20056;-75
2022/10/04 12:43:39;;;;;;;6.28;4.43;;;18.50;99.90;;;;;;5060954;28;20052;-75
2022/10/04 12:46:25;;;;;;;8.32;4.60;;;18.50;99.90;;;;;;5058157;28;20044;-75
2022/10/04 12:49:26;;;;;;;7.32;3.85;;;18.50;99.90;;;;;;5055917;28;20110;-76
2022/10/04 12:51:57;;;;;;;8.23;4.07;;;18.60;99.90;;;;;;5046365;28;20744;-76
2022/10/04 12:54:32;;;;;;;8.25;3.95;;;18.70;99.80;;;;;;5055507;28;20128;-77
2022/10/04 12:57:40;;;;;;;9.40;5.13;;;18.70;99.40;;;;;;5054777;28;20060;-76
2022/10/04 13:00:19;;;;;;;8.05;4.60;;;18.60;99.30;;;;;;5046304;28;20056;-75
2022/10/04 13:03:07;;;;;;;10.30;5.38;;;18.70;99.90;;;;;;5051996;28;20203;-75
2022/10/04 13:05:49;;;;;;;6.05;4.05;;;18.70;99.40;;;;;;5054884;28;20620;-75
2022/10/04 13:08:45;;;;;;;11.13;5.05;;;18.70;99.90;;;;;;5052956;28;20052;-76
2022/10/04 13:11:34;;;;;;;9.18;4.38;;;18.70;99.90;;;;;;5045960;28;20084;-76
2022/10/04 13:14:39;;;;;;;5.80;4.90;;;18.80;99.90;;;;;;5054996;28;20048;-76
2022/10/04 13:17:39;;;;;;;5.60;4.53;;;18.80;99.10;;;;;;5053788;28;20483;-75
2022/10/04 13:20:31;;;;;;;4.97;4.15;;;18.80;99.80;;;;;;5052211;28;21054;-76
2022/10/04 13:23:45;;;;;;;6.03;4.82;;;18.80;99.90;;;;;;5053453;28;20048;-76
2022/10/04 13:26:14;;;;;;;8.15;5.47;;;18.70;99.70;;;;;;5052402;28;20053;-76
2022/10/04 13:29:01;;;;;;;7.90;4.97;;;18.70;99.90;;;;;;5054741;28;20052;-75
2022/10/04 13:31:48;;;;;;;8.40;5.13;;;18.60;99.50;;;;;;5054350;28;20058;-76
2022/10/04 13:34:22;;;;;;;11.93;5.68;;;18.70;99.90;;;;;;5055332;28;20044;-77
2022/10/04 13:37:08;;;;;;;8.63;4.75;;;18.60;99.00;;;;;;5055279;28;20068;-77
2022/10/04 13:39:56;;;;;;;6.30;4.63;;;18.70;99.90;;;;;;5055371;28;20049;-76
2022/10/04 13:42:27;;;;;;;8.23;5.25;;;18.80;99.90;;;;;;5053604;28;20402;-76
2022/10/04 13:45:33;;;;;;;8.85;4.60;;;18.70;99.90;;;;;;5054370;28;20049;-76
2022/10/04 13:48:14;;;;;;;8.25;4.72;;;18.70;99.90;;;;;;5048757;28;20060;-75
2022/10/04 13:50:39;;;;;;;7.53;5.53;;;18.80;99.90;;;;;;5054754;28;20172;-76
2022/10/04 13:56:40;;;;;;;8.70;5.13;;;18.70;99.90;;;;;;5051628;28;20936;-75
2022/10/04 13:59:27;;;;;;;8.07;4.55;;;18.60;99.90;;;;;;5052101;28;20075;-76
2022/10/04 14:02:14;;;;;;;7.10;4.45;;;18.50;99.90;;;;;;5049524;28;20045;-76
2022/10/04 14:05:04;;;;;;;7.57;4.35;;;18.40;99.90;;;;;;5048500;28;20160;-76
2022/10/04 14:07:51;;;;;;;6.60;4.05;;;18.30;99.90;;;;;;5050771;28;20053;-75
2022/10/04 14:10:41;;;;;;;5.70;4.03;;;18.20;99.90;;;;;;5051115;28;20032;-76